Time;durP1;ratioP1;P1;durP2;ratioP2;P2;SDS_P1;SDS_P2;PMS_P1;PMS_P2;Temp;Humidity;BMP_temperature;BMP_pressure;BME280_temperature;BME280_humidity;BME280_pressure;Samples;Min_cycle;Max_cycle;Signal;HPM_P1;HPM_P2
2021/12/31 00:01:14;;;;;;;12.15;10.88;;;19.50;69.30;;;;;;4997162;28;20065;-25
2021/12/31 00:03:39;;;;;;;12.63;11.27;;;19.50;69.40;;;;;;4980205;28;20399;-24
2021/12/31 00:06:06;;;;;;;11.52;10.32;;;19.50;69.30;;;;;;4987927;28;20026;-24
2021/12/31 00:08:31;;;;;;;11.77;10.57;;;19.50;69.20;;;;;;4991774;28;20050;-23
2021/12/31 00:10:59;;;;;;;10.82;9.40;;;19.50;69.20;;;;;;4993645;28;20018;-23
2021/12/31 00:13:28;;;;;;;11.38;10.02;;;19.50;69.30;;;;;;4994958;28;20031;-23
2021/12/31 00:15:54;;;;;;;11.10;10.00;;;19.50;69.20;;;;;;4995881;28;20029;-23
2021/12/31 00:18:19;;;;;;;10.40;9.38;;;19.50;69.40;;;;;;4994528;28;20038;-23
2021/12/31 00:20:45;;;;;;;10.95;9.85;;;19.50;69.40;;;;;;4995075;28;20022;-22
2021/12/31 00:23:13;;;;;;;10.48;9.48;;;19.50;69.40;;;;;;4991639;28;20034;-23
2021/12/31 00:25:40;;;;;;;9.57;8.73;;;19.50;69.30;;;;;;4996389;28;20032;-23
2021/12/31 00:28:06;;;;;;;10.85;9.48;;;19.50;69.20;;;;;;4997508;28;20030;-23
2021/12/31 00:30:32;;;;;;;9.98;8.98;;;19.50;69.20;;;;;;4996536;28;20110;-23
2021/12/31 00:32:58;;;;;;;10.02;9.02;;;19.50;69.10;;;;;;4995543;28;20041;-22
2021/12/31 00:35:24;;;;;;;9.38;8.48;;;19.50;69.00;;;;;;4997385;28;20032;-23
2021/12/31 00:37:49;;;;;;;9.10;8.20;;;19.60;69.00;;;;;;4997389;28;20034;-23
2021/12/31 00:40:16;;;;;;;9.20;8.30;;;19.60;69.00;;;;;;4995180;28;20105;-23
2021/12/31 00:42:41;;;;;;;8.98;8.07;;;19.50;69.00;;;;;;4987922;28;20041;-23
2021/12/31 00:45:09;;;;;;;8.77;7.97;;;19.50;69.00;;;;;;4995986;28;20026;-23
2021/12/31 00:47:34;;;;;;;8.25;7.45;;;19.50;69.00;;;;;;4995151;28;20026;-23
2021/12/31 00:50:00;;;;;;;8.63;7.82;;;19.50;69.00;;;;;;4995009;28;20023;-22
2021/12/31 00:52:26;;;;;;;8.30;7.50;;;19.60;68.90;;;;;;4995298;28;20030;-22
2021/12/31 00:54:51;;;;;;;8.60;7.80;;;19.60;68.70;;;;;;4994903;28;20425;-23
2021/12/31 00:57:17;;;;;;;8.18;7.47;;;19.60;68.80;;;;;;4996725;28;20037;-23
2021/12/31 00:59:42;;;;;;;8.68;7.78;;;19.60;68.60;;;;;;4996804;28;20022;-22
2021/12/31 01:02:11;;;;;;;7.53;6.82;;;19.50;68.70;;;;;;4994803;28;20479;-22
2021/12/31 01:04:37;;;;;;;7.93;7.22;;;19.60;68.70;;;;;;4989109;28;20027;-22
2021/12/31 01:07:02;;;;;;;8.23;7.53;;;19.60;68.70;;;;;;4996408;28;20057;-22
2021/12/31 01:09:31;;;;;;;7.70;7.10;;;19.60;69.50;;;;;;4996846;28;20042;-23
2021/12/31 01:11:58;;;;;;;8.15;7.35;;;19.60;68.70;;;;;;4993491;28;20034;-23
2021/12/31 01:14:33;;;;;;;7.43;6.72;;;19.60;68.80;;;;;;4997690;28;20103;-23
2021/12/31 01:17:00;;;;;;;6.85;6.25;;;19.60;68.70;;;;;;5001290;28;20041;-25
2021/12/31 01:21:52;;;;;;;7.00;6.43;;;19.50;68.60;;;;;;4999651;28;20029;-23
2021/12/31 01:24:19;;;;;;;6.82;6.15;;;19.50;68.80;;;;;;4993370;28;20022;-22
2021/12/31 01:26:45;;;;;;;6.82;6.30;;;19.50;68.60;;;;;;4999236;28;20030;-22
2021/12/31 01:29:10;;;;;;;7.57;6.88;;;19.50;68.70;;;;;;4998481;28;20029;-22
2021/12/31 01:31:36;;;;;;;6.90;6.40;;;19.50;68.70;;;;;;5000285;28;20030;-22
2021/12/31 01:34:01;;;;;;;7.10;6.45;;;19.50;68.80;;;;;;5000507;28;20026;-22
2021/12/31 01:36:27;;;;;;;6.60;6.10;;;19.50;68.60;;;;;;5000084;28;20594;-22
2021/12/31 01:38:53;;;;;;;6.10;5.68;;;19.40;68.90;;;;;;4997329;28;20026;-23
2021/12/31 01:41:20;;;;;;;6.80;6.20;;;19.40;69.10;;;;;;4995109;28;20030;-23
2021/12/31 01:43:46;;;;;;;6.45;5.90;;;19.40;69.20;;;;;;5000472;28;20036;-23
2021/12/31 01:46:12;;;;;;;6.68;6.10;;;19.30;69.20;;;;;;5000158;28;20516;-23
2021/12/31 01:49:00;;;;;;;5.45;5.05;;;19.30;69.20;;;;;;5000119;28;20465;-23
2021/12/31 01:51:26;;;;;;;5.85;5.35;;;19.30;69.20;;;;;;4995466;28;20061;-23
2021/12/31 01:53:52;;;;;;;5.60;5.20;;;19.30;69.30;;;;;;4998495;28;20035;-23
2021/12/31 01:56:18;;;;;;;5.68;5.18;;;19.30;69.20;;;;;;4997914;28;20026;-23
2021/12/31 01:58:43;;;;;;;5.22;4.82;;;19.30;69.00;;;;;;5014565;28;20030;-23
2021/12/31 02:01:10;;;;;;;5.80;5.40;;;19.40;68.90;;;;;;4982215;28;20463;-23
2021/12/31 02:03:36;;;;;;;5.53;5.13;;;19.40;68.90;;;;;;4998348;28;20031;-23
2021/12/31 02:06:02;;;;;;;5.28;4.88;;;19.40;68.90;;;;;;4982432;28;20093;-22
2021/12/31 02:08:29;;;;;;;5.05;4.70;;;19.40;68.70;;;;;;4987966;28;20078;-23
2021/12/31 02:10:55;;;;;;;5.40;4.90;;;19.40;68.60;;;;;;4995914;28;20022;-22
2021/12/31 02:13:21;;;;;;;5.35;4.95;;;19.40;68.60;;;;;;4997299;28;20081;-23
2021/12/31 02:15:46;;;;;;;5.35;5.00;;;19.40;68.50;;;;;;4994191;28;20495;-23
2021/12/31 02:18:12;;;;;;;5.65;5.25;;;19.40;68.50;;;;;;4998166;28;20030;-23
2021/12/31 02:20:41;;;;;;;5.80;5.40;;;19.40;68.40;;;;;;4999395;28;20062;-23
2021/12/31 02:23:23;;;;;;;5.47;5.07;;;19.30;68.70;;;;;;4998664;28;20038;-23
2021/12/31 02:25:49;;;;;;;4.95;4.63;;;19.30;69.00;;;;;;4997033;28;20053;-22
2021/12/31 02:28:15;;;;;;;4.60;4.40;;;19.30;69.00;;;;;;4998419;28;20505;-23
2021/12/31 02:30:41;;;;;;;5.07;4.68;;;19.30;69.00;;;;;;4999715;28;20025;-22
2021/12/31 02:33:07;;;;;;;4.80;4.50;;;19.30;69.20;;;;;;4997197;28;20034;-22
2021/12/31 02:35:33;;;;;;;4.93;4.63;;;19.20;68.90;;;;;;4999387;28;20091;-22
2021/12/31 02:37:58;;;;;;;4.93;4.53;;;19.30;68.90;;;;;;4999147;28;20035;-23
2021/12/31 02:40:25;;;;;;;5.53;5.10;;;19.30;69.00;;;;;;4997705;28;20034;-22
2021/12/31 02:42:50;;;;;;;4.97;4.68;;;19.30;68.90;;;;;;4995510;28;20038;-22
2021/12/31 02:45:16;;;;;;;5.05;4.75;;;19.30;68.80;;;;;;4999250;28;20033;-22
2021/12/31 02:47:45;;;;;;;5.25;4.80;;;19.30;69.10;;;;;;4998285;28;20480;-22
2021/12/31 02:50:16;;;;;;;4.65;4.35;;;19.20;69.20;;;;;;4998705;28;20109;-22
2021/12/31 02:52:42;;;;;;;4.80;4.40;;;19.10;69.40;;;;;;4998782;28;20045;-22
2021/12/31 02:55:08;;;;;;;4.22;3.92;;;19.10;69.50;;;;;;4997246;28;20026;-22
2021/12/31 02:57:34;;;;;;;4.20;3.90;;;19.20;69.10;;;;;;4996645;28;20089;-23
2021/12/31 03:00:00;;;;;;;5.00;4.60;;;19.20;69.00;;;;;;4994857;28;20576;-23
2021/12/31 03:02:26;;;;;;;4.50;4.20;;;19.20;69.30;;;;;;4997450;28;20041;-23
2021/12/31 03:04:52;;;;;;;4.30;4.00;;;19.10;69.20;;;;;;4998551;28;20026;-23
2021/12/31 03:07:18;;;;;;;4.32;4.03;;;19.10;69.30;;;;;;4998178;28;20061;-22
2021/12/31 03:09:46;;;;;;;3.92;3.70;;;19.20;69.00;;;;;;4998702;28;20046;-23
2021/12/31 03:12:13;;;;;;;4.45;4.15;;;19.20;69.00;;;;;;4988126;28;20046;-23
2021/12/31 03:14:40;;;;;;;4.18;3.88;;;19.30;68.80;;;;;;4999031;28;20022;-23
2021/12/31 03:17:05;;;;;;;3.95;3.75;;;19.30;68.80;;;;;;4998642;28;20030;-23
2021/12/31 03:19:31;;;;;;;3.60;3.40;;;19.30;68.70;;;;;;5013266;28;20023;-23
2021/12/31 03:21:56;;;;;;;3.85;3.65;;;19.30;68.70;;;;;;4997962;28;20031;-23
2021/12/31 03:24:22;;;;;;;3.80;3.60;;;19.20;68.80;;;;;;4995161;28;20042;-22
2021/12/31 03:26:47;;;;;;;4.00;3.70;;;19.30;68.80;;;;;;4998215;28;20026;-22
2021/12/31 03:29:13;;;;;;;3.60;3.40;;;19.30;68.70;;;;;;4998081;28;20398;-23
2021/12/31 03:31:39;;;;;;;3.40;3.20;;;19.20;68.80;;;;;;4998098;28;20538;-22
2021/12/31 03:34:04;;;;;;;4.00;3.75;;;19.20;68.80;;;;;;4997227;28;20490;-23
2021/12/31 03:36:30;;;;;;;3.67;3.47;;;19.20;68.90;;;;;;4997404;28;20670;-22
2021/12/31 03:38:55;;;;;;;3.75;3.50;;;19.20;68.90;;;;;;5002806;28;20510;-23
2021/12/31 03:41:21;;;;;;;3.78;3.47;;;19.20;68.90;;;;;;5002283;28;20038;-23
2021/12/31 03:43:47;;;;;;;3.65;3.40;;;19.20;69.00;;;;;;4995346;28;20026;-23
2021/12/31 03:46:12;;;;;;;3.55;3.35;;;19.10;69.00;;;;;;4998127;28;20109;-23
2021/12/31 03:48:38;;;;;;;3.50;3.30;;;19.10;69.00;;;;;;4998422;28;20601;-23
2021/12/31 03:51:03;;;;;;;4.10;3.80;;;19.20;68.90;;;;;;4997604;28;20489;-22
2021/12/31 03:53:29;;;;;;;4.40;4.03;;;19.20;68.80;;;;;;4997414;28;20081;-22
2021/12/31 03:55:54;;;;;;;3.65;3.45;;;19.20;68.90;;;;;;4996258;28;20105;-22
2021/12/31 03:58:20;;;;;;;3.20;3.00;;;19.20;68.80;;;;;;4996818;28;20166;-23
2021/12/31 04:00:46;;;;;;;3.92;3.55;;;19.20;68.80;;;;;;4997676;28;20027;-23
2021/12/31 04:03:12;;;;;;;3.75;3.55;;;19.10;69.10;;;;;;4996604;28;20068;-23
2021/12/31 04:05:39;;;;;;;3.20;3.00;;;19.20;69.20;;;;;;4997564;28;20022;-22
2021/12/31 04:08:05;;;;;;;3.22;3.03;;;19.10;69.20;;;;;;4996457;28;20411;-23
2021/12/31 04:10:31;;;;;;;2.78;2.58;;;19.10;69.20;;;;;;4995470;28;20033;-22
2021/12/31 04:12:57;;;;;;;3.00;2.80;;;19.10;69.20;;;;;;4994670;28;20102;-22
2021/12/31 04:15:22;;;;;;;2.90;2.75;;;19.10;69.20;;;;;;4996813;28;20084;-23
2021/12/31 04:17:48;;;;;;;3.22;3.03;;;19.10;69.20;;;;;;4995767;28;20041;-23
2021/12/31 04:20:19;;;;;;;2.60;2.50;;;19.10;69.10;;;;;;4996704;28;20034;-23
2021/12/31 04:22:53;;;;;;;3.30;3.10;;;19.10;69.20;;;;;;4995620;28;20057;-23
2021/12/31 04:25:19;;;;;;;3.22;3.03;;;19.10;69.30;;;;;;4992663;28;20108;-23
2021/12/31 04:27:44;;;;;;;3.17;2.97;;;19.00;69.40;;;;;;4994620;28;20027;-23
2021/12/31 04:30:10;;;;;;;2.85;2.65;;;19.00;69.50;;;;;;4995300;28;20030;-22
2021/12/31 04:32:36;;;;;;;3.00;2.80;;;19.00;69.60;;;;;;4995125;28;20053;-23
2021/12/31 04:35:01;;;;;;;2.90;2.70;;;19.00;69.40;;;;;;4994260;28;20046;-22
2021/12/31 04:37:27;;;;;;;2.60;2.50;;;19.00;69.60;;;;;;4996582;28;20033;-23
2021/12/31 04:39:53;;;;;;;3.08;2.88;;;19.00;69.40;;;;;;4995342;28;20031;-22
2021/12/31 04:42:19;;;;;;;3.00;2.80;;;19.00;69.40;;;;;;4996889;28;20051;-22
2021/12/31 04:44:45;;;;;;;3.20;3.00;;;19.00;69.70;;;;;;4989905;28;20526;-23
2021/12/31 04:47:10;;;;;;;2.42;2.22;;;19.00;69.70;;;;;;4995444;28;20082;-23
2021/12/31 04:49:36;;;;;;;2.80;2.60;;;19.00;69.70;;;;;;4997151;28;20038;-22
2021/12/31 04:52:01;;;;;;;2.88;2.78;;;19.00;69.60;;;;;;4996048;28;20041;-22
2021/12/31 04:54:27;;;;;;;2.72;2.58;;;19.00;69.80;;;;;;4995915;28;20041;-22
2021/12/31 04:56:54;;;;;;;2.60;2.42;;;18.90;69.60;;;;;;4988296;28;20398;-22
2021/12/31 04:59:20;;;;;;;2.60;2.50;;;18.90;69.60;;;;;;4997195;28;20062;-22
2021/12/31 05:01:47;;;;;;;3.10;2.90;;;18.90;69.60;;;;;;4997168;28;20087;-22
2021/12/31 05:04:14;;;;;;;2.50;2.40;;;18.90;69.60;;;;;;4991575;28;20026;-23
2021/12/31 05:06:40;;;;;;;2.40;2.30;;;18.90;69.60;;;;;;4993155;28;20030;-22
2021/12/31 05:09:05;;;;;;;2.22;2.13;;;18.90;69.60;;;;;;4996848;28;20079;-22
2021/12/31 05:11:31;;;;;;;2.47;2.38;;;18.90;69.50;;;;;;4994765;28;20152;-22
2021/12/31 05:13:57;;;;;;;2.42;2.33;;;18.90;69.40;;;;;;4996335;28;20034;-22
2021/12/31 05:16:23;;;;;;;2.40;2.30;;;18.90;69.50;;;;;;4995776;28;20113;-22
2021/12/31 05:18:48;;;;;;;2.45;2.35;;;18.90;69.50;;;;;;4996716;28;20403;-22
2021/12/31 05:21:14;;;;;;;2.35;2.25;;;18.90;69.40;;;;;;4994899;28;20029;-23
2021/12/31 05:23:39;;;;;;;2.67;2.53;;;18.90;69.30;;;;;;4996560;28;20105;-23
2021/12/31 05:26:05;;;;;;;2.10;2.00;;;18.90;69.50;;;;;;4994793;28;20034;-23
2021/12/31 05:28:32;;;;;;;2.35;2.25;;;18.90;69.70;;;;;;4995151;28;20026;-23
2021/12/31 05:30:58;;;;;;;2.20;2.10;;;18.90;69.70;;;;;;4994344;28;20049;-22
2021/12/31 05:33:23;;;;;;;2.17;2.08;;;18.80;69.70;;;;;;5009787;28;20034;-22
2021/12/31 05:35:49;;;;;;;2.00;1.90;;;18.80;69.70;;;;;;4996129;28;20026;-22
2021/12/31 05:38:15;;;;;;;2.10;2.00;;;18.80;69.60;;;;;;4996566;28;20042;-23
2021/12/31 05:40:40;;;;;;;2.17;2.08;;;18.80;69.60;;;;;;4991505;28;20033;-22
2021/12/31 05:43:06;;;;;;;2.03;1.92;;;18.90;69.70;;;;;;4993623;28;20113;-22
2021/12/31 05:45:31;;;;;;;1.92;1.83;;;18.80;69.70;;;;;;4977322;28;20027;-22
2021/12/31 05:47:57;;;;;;;1.90;1.80;;;18.90;69.70;;;;;;4977377;28;20038;-23
2021/12/31 05:50:29;;;;;;;2.00;1.90;;;18.90;69.90;;;;;;4994676;28;20383;-23
2021/12/31 05:52:55;;;;;;;1.98;1.88;;;18.90;69.80;;;;;;4996349;28;20439;-23
2021/12/31 05:55:21;;;;;;;2.10;2.00;;;18.80;69.90;;;;;;4995847;28;20030;-23
2021/12/31 05:57:47;;;;;;;2.00;1.90;;;18.80;69.80;;;;;;4995381;28;20049;-23
2021/12/31 06:00:13;;;;;;;1.90;1.80;;;18.80;69.80;;;;;;4997710;28;20037;-23
2021/12/31 06:02:39;;;;;;;2.10;2.00;;;18.90;69.80;;;;;;4999417;28;20506;-23
2021/12/31 06:05:05;;;;;;;1.88;1.77;;;18.80;69.80;;;;;;4994838;28;20149;-22
2021/12/31 06:07:30;;;;;;;1.98;1.88;;;18.90;69.90;;;;;;4997300;28;20030;-23
2021/12/31 06:09:56;;;;;;;1.90;1.80;;;18.80;69.60;;;;;;4999479;28;20049;-23
2021/12/31 06:12:23;;;;;;;1.60;1.50;;;18.80;70.60;;;;;;4998187;28;20034;-23
2021/12/31 06:14:49;;;;;;;1.73;1.63;;;18.90;69.90;;;;;;5013296;28;20027;-22
2021/12/31 06:17:21;;;;;;;1.70;1.60;;;18.80;69.90;;;;;;4998220;28;20030;-23
2021/12/31 06:19:47;;;;;;;1.80;1.70;;;18.80;69.90;;;;;;4999316;28;20486;-23
2021/12/31 06:22:12;;;;;;;1.90;1.80;;;18.80;70.60;;;;;;4997870;28;20085;-23
2021/12/31 06:24:38;;;;;;;1.80;1.70;;;18.80;69.80;;;;;;4998263;28;20023;-22
2021/12/31 06:27:03;;;;;;;1.70;1.60;;;18.80;69.80;;;;;;4998931;28;20454;-24
2021/12/31 06:29:29;;;;;;;1.70;1.60;;;18.90;69.80;;;;;;4998465;28;20045;-23
2021/12/31 06:31:55;;;;;;;1.70;1.60;;;18.80;69.80;;;;;;4998355;28;20050;-23
2021/12/31 06:34:20;;;;;;;1.70;1.60;;;18.80;69.90;;;;;;4998607;28;20090;-23
2021/12/31 06:36:46;;;;;;;1.70;1.60;;;18.80;70.00;;;;;;4999100;28;20085;-23
2021/12/31 06:39:11;;;;;;;1.50;1.40;;;18.80;69.90;;;;;;4997339;28;20026;-23
2021/12/31 06:41:37;;;;;;;1.90;1.80;;;18.80;69.90;;;;;;4996078;28;20068;-24
2021/12/31 06:44:03;;;;;;;1.83;1.73;;;18.80;69.90;;;;;;4996502;28;20029;-23
2021/12/31 06:46:28;;;;;;;1.90;1.80;;;18.80;69.90;;;;;;4998692;28;20069;-23
2021/12/31 06:48:54;;;;;;;1.52;1.40;;;18.80;70.70;;;;;;4998839;28;20025;-23
2021/12/31 06:51:19;;;;;;;1.60;1.50;;;18.80;69.90;;;;;;4998637;28;20075;-22
2021/12/31 06:53:45;;;;;;;1.70;1.60;;;18.80;70.00;;;;;;4997530;28;20025;-23
2021/12/31 06:56:11;;;;;;;1.48;1.38;;;18.80;69.90;;;;;;4998394;28;20026;-22
2021/12/31 06:58:37;;;;;;;1.80;1.70;;;18.80;69.80;;;;;;4998162;28;20014;-23
2021/12/31 07:01:03;;;;;;;1.60;1.50;;;18.70;69.80;;;;;;4998700;28;20573;-22
2021/12/31 07:03:28;;;;;;;1.50;1.40;;;18.80;69.90;;;;;;4997524;28;20129;-22
2021/12/31 07:05:54;;;;;;;1.52;1.42;;;18.80;69.80;;;;;;4998296;28;20019;-23
2021/12/31 07:08:19;;;;;;;1.58;1.48;;;18.80;70.50;;;;;;4998304;28;20527;-22
2021/12/31 07:10:45;;;;;;;1.20;1.20;;;18.80;69.80;;;;;;4997623;28;20492;-22
2021/12/31 07:13:11;;;;;;;1.58;1.48;;;18.80;69.80;;;;;;4997929;28;20027;-22
2021/12/31 07:15:50;;;;;;;1.30;1.30;;;18.80;69.60;;;;;;4998541;28;20028;-22
2021/12/31 07:18:21;;;;;;;1.98;1.50;;;18.80;69.70;;;;;;4995670;28;20451;-23
2021/12/31 07:20:47;;;;;;;1.88;1.77;;;18.80;69.70;;;;;;4998045;28;20489;-23
2021/12/31 07:23:15;;;;;;;1.40;1.30;;;18.80;69.70;;;;;;4997308;28;20030;-22
2021/12/31 07:25:41;;;;;;;1.05;1.05;;;18.80;69.70;;;;;;4997629;28;20060;-23
2021/12/31 07:28:07;;;;;;;1.40;1.30;;;18.80;69.60;;;;;;4997908;28;20042;-23
2021/12/31 07:30:33;;;;;;;1.25;1.25;;;18.80;69.70;;;;;;4995656;28;20073;-23
2021/12/31 07:32:58;;;;;;;1.33;1.30;;;18.80;69.70;;;;;;4997926;28;20027;-23
2021/12/31 07:35:24;;;;;;;1.67;1.58;;;18.80;69.60;;;;;;4997734;28;20034;-22
2021/12/31 07:37:55;;;;;;;1.63;1.52;;;18.80;69.70;;;;;;4997831;28;20073;-23
2021/12/31 07:40:41;;;;;;;1.48;1.38;;;18.70;69.60;;;;;;4997680;28;20165;-22
2021/12/31 07:43:08;;;;;;;1.50;1.13;;;18.70;69.70;;;;;;4996895;28;20026;-22
2021/12/31 07:45:33;;;;;;;1.15;1.05;;;18.70;69.70;;;;;;4994864;28;20029;-22
2021/12/31 07:48:00;;;;;;;1.50;1.40;;;18.70;69.60;;;;;;4997638;28;20070;-23
2021/12/31 07:50:25;;;;;;;1.05;1.05;;;18.70;69.60;;;;;;4997595;28;20026;-23
2021/12/31 07:52:51;;;;;;;1.27;1.27;;;18.80;69.60;;;;;;4997566;28;20522;-22
2021/12/31 07:55:16;;;;;;;1.00;1.00;;;18.80;70.00;;;;;;4995930;28;20026;-22
2021/12/31 07:57:42;;;;;;;1.38;1.27;;;18.70;69.60;;;;;;4996429;28;20534;-23
2021/12/31 08:00:08;;;;;;;1.02;1.02;;;18.70;69.60;;;;;;4997373;28;20034;-23
2021/12/31 08:02:33;;;;;;;1.17;1.10;;;18.70;69.60;;;;;;4997222;28;20053;-22
2021/12/31 08:04:59;;;;;;;1.10;1.10;;;18.70;69.60;;;;;;4996486;28;20022;-24
2021/12/31 08:07:25;;;;;;;1.35;1.25;;;18.70;69.60;;;;;;4996579;28;20041;-23
2021/12/31 08:09:50;;;;;;;1.05;1.05;;;18.70;69.60;;;;;;4995818;28;20066;-22
2021/12/31 08:12:16;;;;;;;1.05;1.05;;;18.80;69.60;;;;;;4995533;28;21569;-23
2021/12/31 08:14:41;;;;;;;1.17;1.10;;;18.70;69.70;;;;;;4995378;28;20038;-23
2021/12/31 08:17:07;;;;;;;0.98;0.90;;;18.70;69.70;;;;;;4994604;28;20574;-22
2021/12/31 08:19:32;;;;;;;1.00;1.00;;;18.70;69.60;;;;;;4995983;28;20034;-23
2021/12/31 08:21:58;;;;;;;1.15;1.10;;;18.70;69.60;;;;;;4995224;28;20022;-22
2021/12/31 08:24:24;;;;;;;1.15;1.05;;;18.80;69.70;;;;;;4995474;28;20143;-23
2021/12/31 08:26:49;;;;;;;1.00;0.93;;;18.70;69.60;;;;;;4995478;28;20034;-23
2021/12/31 08:29:15;;;;;;;1.25;1.15;;;18.80;69.70;;;;;;4995258;28;20030;-23
2021/12/31 08:31:41;;;;;;;1.10;1.10;;;18.70;69.70;;;;;;4993986;28;20034;-22
2021/12/31 08:34:08;;;;;;;1.30;1.27;;;18.70;69.70;;;;;;4995413;28;20033;-23
2021/12/31 08:36:34;;;;;;;1.30;1.20;;;18.70;69.70;;;;;;4996568;28;20041;-22
2021/12/31 08:39:00;;;;;;;1.15;1.08;;;18.70;69.60;;;;;;4995680;28;20030;-23
2021/12/31 08:41:25;;;;;;;0.90;0.90;;;18.70;69.60;;;;;;4994150;28;20091;-22
2021/12/31 08:43:51;;;;;;;1.95;1.27;;;18.70;69.60;;;;;;4995558;28;20109;-23
2021/12/31 08:46:17;;;;;;;1.10;1.10;;;18.70;69.60;;;;;;4992262;28;20014;-22
2021/12/31 08:48:42;;;;;;;1.17;1.08;;;18.70;69.60;;;;;;4994487;28;20023;-23
2021/12/31 08:51:08;;;;;;;1.52;0.90;;;18.70;69.60;;;;;;4996262;28;20023;-23
2021/12/31 08:53:33;;;;;;;1.10;1.10;;;18.70;69.60;;;;;;4996330;28;20034;-22
2021/12/31 08:55:59;;;;;;;1.00;1.00;;;18.70;69.60;;;;;;4992871;28;20023;-23
2021/12/31 08:58:24;;;;;;;0.98;0.98;;;18.70;69.60;;;;;;4995309;28;20038;-23
2021/12/31 09:00:50;;;;;;;1.40;1.30;;;18.70;69.60;;;;;;4994764;28;21348;-22
2021/12/31 09:03:16;;;;;;;0.93;0.93;;;18.70;69.60;;;;;;4992240;28;20065;-22
2021/12/31 09:05:41;;;;;;;1.10;1.00;;;18.70;69.60;;;;;;4996337;28;20015;-22
2021/12/31 09:08:07;;;;;;;1.33;1.23;;;18.70;69.60;;;;;;4996424;28;20131;-22
2021/12/31 09:10:33;;;;;;;1.10;1.10;;;18.70;69.60;;;;;;4995705;28;20452;-22
2021/12/31 09:12:59;;;;;;;1.08;1.08;;;18.70;69.90;;;;;;4993708;28;20046;-22
2021/12/31 09:15:24;;;;;;;0.98;0.98;;;18.70;69.60;;;;;;4995284;28;20095;-22
2021/12/31 09:17:50;;;;;;;1.10;1.10;;;18.60;69.60;;;;;;4994860;28;20046;-22
2021/12/31 09:20:15;;;;;;;2.20;1.40;;;18.60;69.60;;;;;;4995054;28;20030;-23
2021/12/31 09:22:41;;;;;;;1.00;1.00;;;18.60;69.50;;;;;;4993540;28;20499;-23
2021/12/31 09:25:07;;;;;;;1.20;1.10;;;18.70;69.50;;;;;;4993283;28;20166;-22
2021/12/31 09:27:32;;;;;;;1.30;0.90;;;18.60;69.60;;;;;;4994401;28;20735;-22
2021/12/31 09:29:58;;;;;;;1.70;1.60;;;18.70;69.90;;;;;;4995234;28;20082;-22
2021/12/31 09:32:24;;;;;;;1.60;1.50;;;18.70;70.70;;;;;;4994695;28;20065;-23
2021/12/31 09:34:49;;;;;;;2.10;2.00;;;18.80;71.00;;;;;;4991241;28;20173;-23
2021/12/31 09:37:15;;;;;;;1.73;1.63;;;18.80;70.40;;;;;;4997851;28;20434;-23
2021/12/31 09:39:41;;;;;;;1.77;1.67;;;18.80;70.90;;;;;;4997557;28;20046;-21
2021/12/31 09:42:07;;;;;;;5.20;1.77;;;18.80;70.30;;;;;;4997059;28;20186;-22
2021/12/31 09:44:33;;;;;;;1.50;1.40;;;18.80;70.90;;;;;;4978697;28;20042;-21
2021/12/31 09:46:59;;;;;;;1.65;1.55;;;18.80;70.20;;;;;;4995690;28;20050;-22
2021/12/31 09:49:24;;;;;;;1.60;1.50;;;18.80;70.30;;;;;;4997499;28;20050;-22
2021/12/31 09:51:50;;;;;;;3.15;2.25;;;18.80;70.70;;;;;;4989683;28;20050;-22
2021/12/31 09:54:21;;;;;;;5.40;2.78;;;18.80;71.20;;;;;;5018781;28;20065;-22
2021/12/31 09:56:47;;;;;;;4.03;2.50;;;18.80;71.30;;;;;;4997713;28;20054;-21
2021/12/31 09:59:12;;;;;;;5.85;2.20;;;18.80;71.30;;;;;;4997425;28;20042;-22
2021/12/31 10:01:48;;;;;;;4.20;3.10;;;18.80;71.10;;;;;;4997271;28;20046;-22
2021/12/31 10:04:14;;;;;;;3.35;2.60;;;18.90;70.90;;;;;;5003683;28;20607;-22
2021/12/31 10:07:06;;;;;;;2.40;2.20;;;18.90;71.00;;;;;;5002492;28;20125;-22
2021/12/31 10:09:32;;;;;;;2.85;2.10;;;18.90;71.10;;;;;;4998269;28;20099;-21
2021/12/31 10:11:58;;;;;;;3.80;1.80;;;19.00;71.10;;;;;;5004471;28;20430;-22
2021/12/31 10:14:37;;;;;;;2.58;2.10;;;19.00;70.70;;;;;;4998843;28;20078;-22
2021/12/31 10:17:06;;;;;;;2.42;1.98;;;19.00;70.50;;;;;;5017216;28;20041;-22
2021/12/31 10:19:32;;;;;;;2.05;1.85;;;19.00;70.60;;;;;;5023416;28;20039;-22
2021/12/31 10:21:58;;;;;;;2.20;2.00;;;19.00;71.40;;;;;;4997264;28;20473;-22
2021/12/31 10:24:36;;;;;;;2.80;1.60;;;19.00;70.50;;;;;;4998367;28;20046;-22
2021/12/31 10:27:08;;;;;;;3.28;1.90;;;19.00;70.10;;;;;;5011574;28;20054;-23
2021/12/31 10:29:34;;;;;;;3.88;2.38;;;19.00;70.70;;;;;;5001625;28;20053;-22
2021/12/31 10:31:59;;;;;;;2.33;1.75;;;18.90;70.70;;;;;;5014349;28;20049;-23
2021/12/31 10:34:32;;;;;;;2.35;1.85;;;19.00;71.20;;;;;;5017322;28;20073;-23
2021/12/31 10:37:14;;;;;;;5.68;2.10;;;18.90;71.40;;;;;;4660988;28;10000880;-23
2021/12/31 10:39:40;;;;;;;1.85;1.70;;;19.00;71.00;;;;;;4987201;28;20577;-22
2021/12/31 10:42:07;;;;;;;2.63;1.80;;;19.00;70.90;;;;;;4988779;28;20065;-23
2021/12/31 10:44:50;;;;;;;1.80;1.70;;;19.00;70.80;;;;;;4987997;28;20120;-22
2021/12/31 10:47:28;;;;;;;2.60;1.52;;;19.00;70.90;;;;;;4988061;28;20054;-23
2021/12/31 10:50:03;;;;;;;3.28;1.83;;;19.10;70.80;;;;;;4991166;28;20145;-23
2021/12/31 10:52:36;;;;;;;1.90;1.52;;;19.10;71.40;;;;;;4992325;28;20042;-22
2021/12/31 10:55:24;;;;;;;1.70;1.60;;;19.10;71.10;;;;;;5006697;28;20061;-23
2021/12/31 10:57:51;;;;;;;1.77;1.67;;;19.10;71.00;;;;;;5004017;28;20522;-23
2021/12/31 11:00:17;;;;;;;2.17;1.50;;;19.10;71.20;;;;;;5007077;28;20428;-23
2021/12/31 11:02:43;;;;;;;1.98;1.77;;;19.20;71.20;;;;;;5008330;28;20050;-22
2021/12/31 11:05:10;;;;;;;1.80;1.60;;;19.10;71.70;;;;;;5004903;28;20045;-23
2021/12/31 11:07:35;;;;;;;2.13;1.55;;;19.10;71.50;;;;;;5006628;28;20077;-23
2021/12/31 11:10:03;;;;;;;2.60;1.33;;;19.10;71.70;;;;;;5006455;28;20065;-23
2021/12/31 11:12:30;;;;;;;2.78;1.77;;;19.10;71.80;;;;;;5006839;28;20067;-23
2021/12/31 11:14:55;;;;;;;1.75;1.65;;;19.10;71.70;;;;;;5002956;28;20053;-23
2021/12/31 11:17:22;;;;;;;3.63;1.60;;;19.10;71.70;;;;;;5007729;28;20176;-23
2021/12/31 11:19:49;;;;;;;6.38;2.00;;;19.20;72.10;;;;;;5000599;28;20042;-23
2021/12/31 11:22:15;;;;;;;4.18;1.45;;;19.20;71.70;;;;;;4982439;28;20054;-23
2021/12/31 11:24:41;;;;;;;2.08;1.50;;;19.20;71.70;;;;;;4989957;28;20179;-22
2021/12/31 11:27:26;;;;;;;3.13;1.80;;;19.20;71.50;;;;;;4984747;28;20118;-22
2021/12/31 11:29:52;;;;;;;4.53;1.60;;;19.20;71.50;;;;;;4985037;28;20137;-22
2021/12/31 11:32:17;;;;;;;1.92;1.38;;;19.20;71.60;;;;;;5002776;28;20057;-23
2021/12/31 11:34:43;;;;;;;2.03;1.40;;;19.20;71.70;;;;;;4991623;28;20042;-23
2021/12/31 11:37:09;;;;;;;2.10;1.55;;;19.20;71.70;;;;;;4987824;28;20130;-23
2021/12/31 11:39:36;;;;;;;1.27;1.10;;;19.20;71.50;;;;;;4988245;28;20049;-23
2021/12/31 11:42:04;;;;;;;2.85;1.60;;;19.30;71.70;;;;;;4996908;28;20088;-23
2021/12/31 11:44:30;;;;;;;4.35;1.60;;;19.30;72.30;;;;;;4999952;28;20046;-22
2021/12/31 11:47:17;;;;;;;1.75;1.50;;;19.30;71.60;;;;;;5001678;28;20502;-22
2021/12/31 11:49:46;;;;;;;3.38;1.58;;;19.30;71.60;;;;;;5002679;28;20425;-23
2021/12/31 11:52:13;;;;;;;2.15;1.65;;;19.30;71.70;;;;;;5002807;28;20046;-22
2021/12/31 11:54:39;;;;;;;2.05;1.48;;;19.30;71.60;;;;;;4996051;28;20096;-22
2021/12/31 11:57:28;;;;;;;2.25;1.50;;;19.30;71.50;;;;;;4989422;28;20050;-23
2021/12/31 11:59:54;;;;;;;3.72;1.33;;;19.30;71.40;;;;;;4986194;28;20054;-22
2021/12/31 12:02:21;;;;;;;1.55;1.45;;;19.30;71.80;;;;;;4991414;28;20050;-23
2021/12/31 12:05:02;;;;;;;2.38;1.40;;;19.40;72.40;;;;;;4995219;28;20577;-25
2021/12/31 12:07:42;;;;;;;1.40;1.30;;;19.30;71.70;;;;;;4993562;28;20042;-22
2021/12/31 12:10:09;;;;;;;1.38;1.30;;;19.30;71.70;;;;;;4988758;28;20042;-23
2021/12/31 12:12:36;;;;;;;4.22;1.40;;;19.20;71.60;;;;;;5021743;28;20072;-23
2021/12/31 12:15:15;;;;;;;2.67;1.15;;;19.20;71.80;;;;;;4998857;28;20034;-24
2021/12/31 12:17:43;;;;;;;2.08;1.40;;;19.20;72.10;;;;;;4995021;28;20042;-23
2021/12/31 12:20:11;;;;;;;6.72;1.50;;;19.20;72.20;;;;;;4975851;28;20065;-24
2021/12/31 12:22:40;;;;;;;1.55;1.23;;;19.20;72.70;;;;;;4975790;28;20055;-24
2021/12/31 12:25:14;;;;;;;1.35;1.20;;;19.20;72.00;;;;;;4987341;28;20054;-23
2021/12/31 12:27:40;;;;;;;2.03;1.23;;;19.20;72.10;;;;;;5004913;28;20102;-23
2021/12/31 12:30:08;;;;;;;1.92;1.33;;;19.20;72.20;;;;;;4993669;28;20435;-23
2021/12/31 12:32:38;;;;;;;3.97;1.58;;;19.20;72.30;;;;;;4995182;28;20046;-23
2021/12/31 12:35:21;;;;;;;1.20;1.10;;;19.20;71.90;;;;;;4993474;28;20058;-23
2021/12/31 12:38:03;;;;;;;1.63;1.50;;;19.20;71.90;;;;;;4995213;28;20100;-23
2021/12/31 12:40:38;;;;;;;1.55;1.42;;;19.20;71.90;;;;;;4994202;28;20046;-24
2021/12/31 12:43:13;;;;;;;1.55;1.20;;;19.20;72.20;;;;;;4991786;28;20042;-23
2021/12/31 12:45:43;;;;;;;1.30;1.20;;;19.30;71.80;;;;;;4982912;28;20042;-23
2021/12/31 12:48:08;;;;;;;1.65;1.30;;;19.30;71.70;;;;;;5005104;28;20042;-23